sensor_id;sensor_type;location;lat;lon;timestamp;P1;durP1;ratioP1;P2;durP2;ratioP2
57071;SDS011;42956;51.366;11.298;2022-09-27T00:02:24;5.03;;;1.00;;
57071;SDS011;42956;51.366;11.298;2022-09-27T00:04:54;1.48;;;0.80;;
57071;SDS011;42956;51.366;11.298;2022-09-27T00:07:24;0.93;;;0.85;;
57071;SDS011;42956;51.366;11.298;2022-09-27T00:09:52;3.15;;;0.80;;
57071;SDS011;42956;51.366;11.298;2022-09-27T00:12:19;0.68;;;0.68;;
57071;SDS011;42956;51.366;11.298;2022-09-27T00:14:48;0.88;;;0.80;;
57071;SDS011;42956;51.366;11.298;2022-09-27T00:17:16;1.10;;;0.95;;
57071;SDS011;42956;51.366;11.298;2022-09-27T00:19:45;3.80;;;0.70;;
57071;SDS011;42956;51.366;11.298;2022-09-27T00:22:15;1.20;;;1.08;;
57071;SDS011;42956;51.366;11.298;2022-09-27T00:24:42;1.05;;;0.90;;
57071;SDS011;42956;51.366;11.298;2022-09-27T00:27:10;2.13;;;0.80;;
57071;SDS011;42956;51.366;11.298;2022-09-27T00:29:38;1.15;;;0.80;;
57071;SDS011;42956;51.366;11.298;2022-09-27T00:32:06;1.52;;;0.63;;
57071;SDS011;42956;51.366;11.298;2022-09-27T00:34:34;3.05;;;0.90;;
57071;SDS011;42956;51.366;11.298;2022-09-27T00:37:02;1.38;;;0.90;;
57071;SDS011;42956;51.366;11.298;2022-09-27T00:39:31;2.28;;;0.80;;
57071;SDS011;42956;51.366;11.298;2022-09-27T00:42:00;1.58;;;1.00;;
57071;SDS011;42956;51.366;11.298;2022-09-27T00:47:16;0.90;;;0.70;;
57071;SDS011;42956;51.366;11.298;2022-09-27T00:49:50;1.15;;;0.75;;
57071;SDS011;42956;51.366;11.298;2022-09-27T00:52:20;1.08;;;0.70;;
57071;SDS011;42956;51.366;11.298;2022-09-27T00:54:52;0.63;;;0.55;;
57071;SDS011;42956;51.366;11.298;2022-09-27T00:59:52;0.73;;;0.60;;
57071;SDS011;42956;51.366;11.298;2022-09-27T01:02:22;0.60;;;0.60;;
57071;SDS011;42956;51.366;11.298;2022-09-27T01:04:50;0.60;;;0.60;;
57071;SDS011;42956;51.366;11.298;2022-09-27T01:07:19;0.55;;;0.55;;
57071;SDS011;42956;51.366;11.298;2022-09-27T01:09:47;1.13;;;0.77;;
57071;SDS011;42956;51.366;11.298;2022-09-27T01:12:19;0.60;;;0.60;;
57071;SDS011;42956;51.366;11.298;2022-09-27T01:14:54;4.60;;;0.60;;
57071;SDS011;42956;51.366;11.298;2022-09-27T01:17:29;1.58;;;0.60;;
57071;SDS011;42956;51.366;11.298;2022-09-27T01:20:12;0.75;;;0.55;;
57071;SDS011;42956;51.366;11.298;2022-09-27T01:22:43;0.82;;;0.60;;
57071;SDS011;42956;51.366;11.298;2022-09-27T01:25:23;0.60;;;0.60;;
57071;SDS011;42956;51.366;11.298;2022-09-27T01:28:01;0.40;;;0.40;;
57071;SDS011;42956;51.366;11.298;2022-09-27T01:30:35;0.40;;;0.40;;
57071;SDS011;42956;51.366;11.298;2022-09-27T01:33:11;0.35;;;0.35;;
57071;SDS011;42956;51.366;11.298;2022-09-27T01:35:44;0.77;;;0.60;;
57071;SDS011;42956;51.366;11.298;2022-09-27T01:38:17;0.93;;;0.47;;
57071;SDS011;42956;51.366;11.298;2022-09-27T01:40:48;0.40;;;0.40;;
57071;SDS011;42956;51.366;11.298;2022-09-27T01:43:20;0.50;;;0.50;;
57071;SDS011;42956;51.366;11.298;2022-09-27T01:45:50;0.50;;;0.50;;
57071;SDS011;42956;51.366;11.298;2022-09-27T01:48:21;0.63;;;0.43;;
57071;SDS011;42956;51.366;11.298;2022-09-27T01:50:50;0.98;;;0.43;;
57071;SDS011;42956;51.366;11.298;2022-09-27T01:53:20;0.85;;;0.65;;
57071;SDS011;42956;51.366;11.298;2022-09-27T01:55:49;0.63;;;0.63;;
57071;SDS011;42956;51.366;11.298;2022-09-27T01:58:19;1.80;;;0.57;;
57071;SDS011;42956;51.366;11.298;2022-09-27T02:00:48;0.95;;;0.50;;
57071;SDS011;42956;51.366;11.298;2022-09-27T02:03:19;0.70;;;0.70;;
57071;SDS011;42956;51.366;11.298;2022-09-27T02:05:49;0.40;;;0.40;;
57071;SDS011;42956;51.366;11.298;2022-09-27T02:08:17;0.70;;;0.50;;
57071;SDS011;42956;51.366;11.298;2022-09-27T02:10:47;0.70;;;0.68;;
57071;SDS011;42956;51.366;11.298;2022-09-27T02:13:16;1.27;;;0.65;;
57071;SDS011;42956;51.366;11.298;2022-09-27T02:15:47;0.60;;;0.50;;
57071;SDS011;42956;51.366;11.298;2022-09-27T02:18:17;5.63;;;0.70;;
57071;SDS011;42956;51.366;11.298;2022-09-27T02:20:50;0.68;;;0.68;;
57071;SDS011;42956;51.366;11.298;2022-09-27T02:23:21;0.68;;;0.60;;
57071;SDS011;42956;51.366;11.298;2022-09-27T02:25:52;3.15;;;0.70;;
57071;SDS011;42956;51.366;11.298;2022-09-27T02:28:22;1.20;;;0.70;;
57071;SDS011;42956;51.366;11.298;2022-09-27T02:30:51;0.75;;;0.65;;
57071;SDS011;42956;51.366;11.298;2022-09-27T02:33:19;0.68;;;0.55;;
57071;SDS011;42956;51.366;11.298;2022-09-27T02:35:50;0.73;;;0.73;;
57071;SDS011;42956;51.366;11.298;2022-09-27T02:38:18;2.63;;;0.60;;
57071;SDS011;42956;51.366;11.298;2022-09-27T02:40:46;0.60;;;0.43;;
57071;SDS011;42956;51.366;11.298;2022-09-27T02:43:15;1.20;;;0.52;;
57071;SDS011;42956;51.366;11.298;2022-09-27T02:45:47;0.68;;;0.60;;
57071;SDS011;42956;51.366;11.298;2022-09-27T02:48:19;1.77;;;1.33;;
57071;SDS011;42956;51.366;11.298;2022-09-27T02:50:59;0.60;;;0.60;;
57071;SDS011;42956;51.366;11.298;2022-09-27T02:53:34;1.13;;;0.88;;
57071;SDS011;42956;51.366;11.298;2022-09-27T02:56:06;3.75;;;0.90;;
57071;SDS011;42956;51.366;11.298;2022-09-27T02:58:40;1.10;;;0.70;;
57071;SDS011;42956;51.366;11.298;2022-09-27T03:01:14;0.98;;;0.60;;
57071;SDS011;42956;51.366;11.298;2022-09-27T03:03:44;0.60;;;0.57;;
57071;SDS011;42956;51.366;11.298;2022-09-27T03:06:17;0.98;;;0.63;;
57071;SDS011;42956;51.366;11.298;2022-09-27T03:08:47;1.80;;;0.75;;
57071;SDS011;42956;51.366;11.298;2022-09-27T03:11:15;1.95;;;0.80;;
57071;SDS011;42956;51.366;11.298;2022-09-27T03:13:44;2.00;;;0.80;;
57071;SDS011;42956;51.366;11.298;2022-09-27T03:16:32;1.15;;;0.80;;
57071;SDS011;42956;51.366;11.298;2022-09-27T03:19:00;0.50;;;0.50;;
57071;SDS011;42956;51.366;11.298;2022-09-27T03:21:30;0.40;;;0.40;;
57071;SDS011;42956;51.366;11.298;2022-09-27T03:24:00;0.57;;;0.40;;
57071;SDS011;42956;51.366;11.298;2022-09-27T03:26:28;1.83;;;0.60;;
57071;SDS011;42956;51.366;11.298;2022-09-27T03:28:56;0.88;;;0.70;;
57071;SDS011;42956;51.366;11.298;2022-09-27T03:31:24;0.50;;;0.50;;
57071;SDS011;42956;51.366;11.298;2022-09-27T03:33:52;0.40;;;0.40;;
57071;SDS011;42956;51.366;11.298;2022-09-27T03:36:20;0.52;;;0.52;;
57071;SDS011;42956;51.366;11.298;2022-09-27T03:38:49;0.30;;;0.30;;
57071;SDS011;42956;51.366;11.298;2022-09-27T03:41:17;2.88;;;0.47;;
57071;SDS011;42956;51.366;11.298;2022-09-27T03:43:45;0.30;;;0.30;;
57071;SDS011;42956;51.366;11.298;2022-09-27T03:46:13;1.35;;;0.50;;
57071;SDS011;42956;51.366;11.298;2022-09-27T03:48:41;1.20;;;0.52;;
57071;SDS011;42956;51.366;11.298;2022-09-27T03:51:09;1.27;;;0.68;;
57071;SDS011;42956;51.366;11.298;2022-09-27T03:53:38;0.60;;;0.60;;
57071;SDS011;42956;51.366;11.298;2022-09-27T03:56:07;0.60;;;0.60;;
57071;SDS011;42956;51.366;11.298;2022-09-27T03:58:35;0.40;;;0.40;;
57071;SDS011;42956;51.366;11.298;2022-09-27T04:01:03;0.63;;;0.50;;
57071;SDS011;42956;51.366;11.298;2022-09-27T04:03:31;0.73;;;0.50;;
57071;SDS011;42956;51.366;11.298;2022-09-27T04:05:59;1.88;;;0.30;;
57071;SDS011;42956;51.366;11.298;2022-09-27T04:08:27;0.40;;;0.40;;
57071;SDS011;42956;51.366;11.298;2022-09-27T04:10:55;0.30;;;0.30;;
57071;SDS011;42956;51.366;11.298;2022-09-27T04:13:25;0.40;;;0.30;;
57071;SDS011;42956;51.366;11.298;2022-09-27T04:15:53;2.13;;;0.50;;
57071;SDS011;42956;51.366;11.298;2022-09-27T04:18:21;0.30;;;0.30;;
57071;SDS011;42956;51.366;11.298;2022-09-27T04:20:49;0.50;;;0.35;;
57071;SDS011;42956;51.366;11.298;2022-09-27T04:23:17;0.60;;;0.60;;
57071;SDS011;42956;51.366;11.298;2022-09-27T04:25:45;0.30;;;0.30;;
57071;SDS011;42956;51.366;11.298;2022-09-27T04:28:12;1.17;;;0.30;;
57071;SDS011;42956;51.366;11.298;2022-09-27T04:30:43;0.40;;;0.40;;
57071;SDS011;42956;51.366;11.298;2022-09-27T04:33:11;0.98;;;0.60;;
57071;SDS011;42956;51.366;11.298;2022-09-27T04:35:39;0.30;;;0.30;;
57071;SDS011;42956;51.366;11.298;2022-09-27T04:38:30;0.40;;;0.40;;
57071;SDS011;42956;51.366;11.298;2022-09-27T04:40:58;2.67;;;0.50;;
57071;SDS011;42956;51.366;11.298;2022-09-27T04:43:27;0.40;;;0.35;;
57071;SDS011;42956;51.366;11.298;2022-09-27T04:45:57;1.50;;;0.55;;
57071;SDS011;42956;51.366;11.298;2022-09-27T04:48:24;1.02;;;0.60;;
57071;SDS011;42956;51.366;11.298;2022-09-27T04:50:56;0.65;;;0.65;;
57071;SDS011;42956;51.366;11.298;2022-09-27T04:53:24;0.60;;;0.55;;
57071;SDS011;42956;51.366;11.298;2022-09-27T04:55:52;1.08;;;0.60;;
57071;SDS011;42956;51.366;11.298;2022-09-27T04:58:20;1.70;;;0.65;;
57071;SDS011;42956;51.366;11.298;2022-09-27T05:00:49;2.78;;;0.80;;
57071;SDS011;42956;51.366;11.298;2022-09-27T05:03:19;4.85;;;0.73;;
57071;SDS011;42956;51.366;11.298;2022-09-27T05:05:47;0.95;;;0.50;;
57071;SDS011;42956;51.366;11.298;2022-09-27T05:08:15;1.00;;;0.63;;
57071;SDS011;42956;51.366;11.298;2022-09-27T05:10:43;1.40;;;0.60;;
57071;SDS011;42956;51.366;11.298;2022-09-27T05:13:10;4.00;;;0.75;;
57071;SDS011;42956;51.366;11.298;2022-09-27T05:15:38;0.90;;;0.77;;
57071;SDS011;42956;51.366;11.298;2022-09-27T05:18:06;0.73;;;0.68;;
57071;SDS011;42956;51.366;11.298;2022-09-27T05:20:36;4.07;;;0.68;;
57071;SDS011;42956;51.366;11.298;2022-09-27T05:23:05;0.80;;;0.80;;
57071;SDS011;42956;51.366;11.298;2022-09-27T05:25:33;2.85;;;0.90;;
57071;SDS011;42956;51.366;11.298;2022-09-27T05:28:01;2.90;;;0.90;;
57071;SDS011;42956;51.366;11.298;2022-09-27T05:30:29;2.47;;;0.70;;
57071;SDS011;42956;51.366;11.298;2022-09-27T05:32:56;4.20;;;1.35;;
57071;SDS011;42956;51.366;11.298;2022-09-27T05:35:25;1.15;;;0.77;;
57071;SDS011;42956;51.366;11.298;2022-09-27T05:37:55;1.30;;;0.88;;
57071;SDS011;42956;51.366;11.298;2022-09-27T05:40:23;3.83;;;0.80;;
57071;SDS011;42956;51.366;11.298;2022-09-27T05:43:08;1.55;;;0.90;;
57071;SDS011;42956;51.366;11.298;2022-09-27T05:45:36;2.28;;;0.95;;
57071;SDS011;42956;51.366;11.298;2022-09-27T05:48:04;1.27;;;0.70;;
57071;SDS011;42956;51.366;11.298;2022-09-27T05:50:32;2.35;;;0.80;;
57071;SDS011;42956;51.366;11.298;2022-09-27T05:53:01;1.73;;;0.93;;
57071;SDS011;42956;51.366;11.298;2022-09-27T05:55:29;0.88;;;0.60;;
57071;SDS011;42956;51.366;11.298;2022-09-27T05:57:57;3.22;;;0.80;;
57071;SDS011;42956;51.366;11.298;2022-09-27T06:00:25;5.85;;;0.82;;
57071;SDS011;42956;51.366;11.298;2022-09-27T06:02:54;4.00;;;0.98;;
57071;SDS011;42956;51.366;11.298;2022-09-27T06:05:22;1.02;;;0.77;;
57071;SDS011;42956;51.366;11.298;2022-09-27T06:07:50;0.98;;;0.60;;
57071;SDS011;42956;51.366;11.298;2022-09-27T06:10:20;0.50;;;0.50;;
57071;SDS011;42956;51.366;11.298;2022-09-27T06:12:48;5.55;;;1.35;;
57071;SDS011;42956;51.366;11.298;2022-09-27T06:15:15;0.88;;;0.75;;
57071;SDS011;42956;51.366;11.298;2022-09-27T06:17:43;0.52;;;0.52;;
57071;SDS011;42956;51.366;11.298;2022-09-27T06:20:11;1.20;;;0.70;;
57071;SDS011;42956;51.366;11.298;2022-09-27T06:22:39;3.90;;;0.98;;
57071;SDS011;42956;51.366;11.298;2022-09-27T06:25:08;0.75;;;0.60;;
57071;SDS011;42956;51.366;11.298;2022-09-27T06:27:38;0.60;;;0.60;;
57071;SDS011;42956;51.366;11.298;2022-09-27T06:30:06;2.55;;;1.48;;
57071;SDS011;42956;51.366;11.298;2022-09-27T06:32:34;1.95;;;0.63;;
57071;SDS011;42956;51.366;11.298;2022-09-27T06:35:02;1.25;;;0.82;;
57071;SDS011;42956;51.366;11.298;2022-09-27T06:37:31;0.98;;;0.77;;
57071;SDS011;42956;51.366;11.298;2022-09-27T06:39:59;1.88;;;1.42;;
57071;SDS011;42956;51.366;11.298;2022-09-27T06:42:28;2.38;;;1.30;;
57071;SDS011;42956;51.366;11.298;2022-09-27T06:44:57;4.75;;;2.53;;
57071;SDS011;42956;51.366;11.298;2022-09-27T06:47:25;4.18;;;1.80;;
57071;SDS011;42956;51.366;11.298;2022-09-27T06:49:53;2.15;;;1.15;;
57071;SDS011;42956;51.366;11.298;2022-09-27T06:52:21;1.17;;;1.02;;
57071;SDS011;42956;51.366;11.298;2022-09-27T06:54:48;2.63;;;1.10;;
57071;SDS011;42956;51.366;11.298;2022-09-27T06:57:16;1.70;;;0.82;;
57071;SDS011;42956;51.366;11.298;2022-09-27T07:00:08;1.75;;;1.05;;
57071;SDS011;42956;51.366;11.298;2022-09-27T07:02:50;1.30;;;1.02;;
57071;SDS011;42956;51.366;11.298;2022-09-27T07:05:18;2.03;;;1.08;;
57071;SDS011;42956;51.366;11.298;2022-09-27T07:07:46;4.82;;;1.50;;
57071;SDS011;42956;51.366;11.298;2022-09-27T07:10:14;1.60;;;1.10;;
57071;SDS011;42956;51.366;11.298;2022-09-27T07:12:43;1.90;;;0.98;;
57071;SDS011;42956;51.366;11.298;2022-09-27T07:15:14;1.20;;;1.10;;
57071;SDS011;42956;51.366;11.298;2022-09-27T07:17:42;1.38;;;1.00;;
57071;SDS011;42956;51.366;11.298;2022-09-27T07:20:10;1.77;;;0.70;;
57071;SDS011;42956;51.366;11.298;2022-09-27T07:22:39;1.58;;;0.60;;
57071;SDS011;42956;51.366;11.298;2022-09-27T07:25:07;2.15;;;0.40;;
57071;SDS011;42956;51.366;11.298;2022-09-27T07:27:35;7.72;;;0.77;;
57071;SDS011;42956;51.366;11.298;2022-09-27T07:30:04;2.88;;;0.52;;
57071;SDS011;42956;51.366;11.298;2022-09-27T07:32:34;2.92;;;1.08;;
57071;SDS011;42956;51.366;11.298;2022-09-27T07:35:02;1.20;;;0.70;;
57071;SDS011;42956;51.366;11.298;2022-09-27T07:37:31;1.08;;;0.50;;
57071;SDS011;42956;51.366;11.298;2022-09-27T07:39:59;0.60;;;0.43;;
57071;SDS011;42956;51.366;11.298;2022-09-27T07:42:27;0.88;;;0.50;;
57071;SDS011;42956;51.366;11.298;2022-09-27T07:44:56;3.22;;;0.60;;
57071;SDS011;42956;51.366;11.298;2022-09-27T07:47:24;0.93;;;0.40;;
57071;SDS011;42956;51.366;11.298;2022-09-27T07:49:54;0.75;;;0.38;;
57071;SDS011;42956;51.366;11.298;2022-09-27T07:52:22;0.95;;;0.45;;
57071;SDS011;42956;51.366;11.298;2022-09-27T07:54:50;0.30;;;0.30;;
57071;SDS011;42956;51.366;11.298;2022-09-27T07:57:20;2.28;;;0.50;;
57071;SDS011;42956;51.366;11.298;2022-09-27T07:59:48;0.30;;;0.30;;
57071;SDS011;42956;51.366;11.298;2022-09-27T08:02:16;0.30;;;0.30;;
57071;SDS011;42956;51.366;11.298;2022-09-27T08:04:44;7.35;;;0.50;;
57071;SDS011;42956;51.366;11.298;2022-09-27T08:07:14;2.10;;;0.50;;
57071;SDS011;42956;51.366;11.298;2022-09-27T08:09:41;1.58;;;0.90;;
57071;SDS011;42956;51.366;11.298;2022-09-27T08:12:10;1.77;;;0.52;;
57071;SDS011;42956;51.366;11.298;2022-09-27T08:14:37;0.75;;;0.30;;
57071;SDS011;42956;51.366;11.298;2022-09-27T08:17:13;0.30;;;0.30;;
57071;SDS011;42956;51.366;11.298;2022-09-27T08:19:41;0.55;;;0.32;;
57071;SDS011;42956;51.366;11.298;2022-09-27T08:22:10;1.00;;;0.40;;
57071;SDS011;42956;51.366;11.298;2022-09-27T08:24:40;0.30;;;0.30;;
57071;SDS011;42956;51.366;11.298;2022-09-27T08:27:08;0.68;;;0.38;;
57071;SDS011;42956;51.366;11.298;2022-09-27T08:29:38;0.50;;;0.28;;
57071;SDS011;42956;51.366;11.298;2022-09-27T08:32:07;0.98;;;0.50;;
57071;SDS011;42956;51.366;11.298;2022-09-27T08:34:35;0.38;;;0.38;;
57071;SDS011;42956;51.366;11.298;2022-09-27T08:37:03;3.53;;;0.60;;
57071;SDS011;42956;51.366;11.298;2022-09-27T08:39:31;0.30;;;0.30;;
57071;SDS011;42956;51.366;11.298;2022-09-27T08:42:04;1.20;;;0.60;;
57071;SDS011;42956;51.366;11.298;2022-09-27T08:44:34;1.08;;;0.80;;
57071;SDS011;42956;51.366;11.298;2022-09-27T08:47:05;1.60;;;0.80;;
57071;SDS011;42956;51.366;11.298;2022-09-27T08:49:37;0.40;;;0.40;;
57071;SDS011;42956;51.366;11.298;2022-09-27T08:52:07;2.05;;;0.50;;
57071;SDS011;42956;51.366;11.298;2022-09-27T08:54:36;1.10;;;0.45;;
57071;SDS011;42956;51.366;11.298;2022-09-27T08:57:08;0.60;;;0.50;;
57071;SDS011;42956;51.366;11.298;2022-09-27T08:59:38;1.00;;;0.60;;
57071;SDS011;42956;51.366;11.298;2022-09-27T09:02:11;0.52;;;0.50;;
57071;SDS011;42956;51.366;11.298;2022-09-27T09:04:41;0.57;;;0.43;;
57071;SDS011;42956;51.366;11.298;2022-09-27T09:07:15;0.47;;;0.40;;
57071;SDS011;42956;51.366;11.298;2022-09-27T09:09:50;2.38;;;0.43;;
57071;SDS011;42956;51.366;11.298;2022-09-27T09:12:27;2.65;;;0.52;;
57071;SDS011;42956;51.366;11.298;2022-09-27T09:15:15;3.88;;;0.70;;
57071;SDS011;42956;51.366;11.298;2022-09-27T09:17:51;1.02;;;0.50;;
57071;SDS011;42956;51.366;11.298;2022-09-27T09:20:25;0.50;;;0.32;;
57071;SDS011;42956;51.366;11.298;2022-09-27T09:23:04;0.93;;;0.60;;
57071;SDS011;42956;51.366;11.298;2022-09-27T09:25:35;0.30;;;0.30;;
57071;SDS011;42956;51.366;11.298;2022-09-27T09:28:14;1.33;;;0.50;;
57071;SDS011;42956;51.366;11.298;2022-09-27T09:30:47;0.45;;;0.30;;
57071;SDS011;42956;51.366;11.298;2022-09-27T09:33:22;0.68;;;0.60;;
57071;SDS011;42956;51.366;11.298;2022-09-27T09:35:53;0.38;;;0.38;;
57071;SDS011;42956;51.366;11.298;2022-09-27T09:38:26;0.52;;;0.50;;
57071;SDS011;42956;51.366;11.298;2022-09-27T09:40:56;0.45;;;0.32;;
57071;SDS011;42956;51.366;11.298;2022-09-27T09:43:29;0.55;;;0.50;;
57071;SDS011;42956;51.366;11.298;2022-09-27T09:45:59;0.88;;;0.55;;
57071;SDS011;42956;51.366;11.298;2022-09-27T09:48:30;0.98;;;0.38;;
57071;SDS011;42956;51.366;11.298;2022-09-27T09:50:59;0.40;;;0.40;;
57071;SDS011;42956;51.366;11.298;2022-09-27T09:53:31;1.15;;;0.52;;
57071;SDS011;42956;51.366;11.298;2022-09-27T09:56:01;1.70;;;1.17;;
57071;SDS011;42956;51.366;11.298;2022-09-27T09:58:33;1.35;;;0.50;;
57071;SDS011;42956;51.366;11.298;2022-09-27T10:01:08;0.50;;;0.50;;
57071;SDS011;42956;51.366;11.298;2022-09-27T10:03:38;1.60;;;0.85;;
57071;SDS011;42956;51.366;11.298;2022-09-27T10:06:07;2.03;;;0.38;;
57071;SDS011;42956;51.366;11.298;2022-09-27T10:08:35;0.68;;;0.40;;
57071;SDS011;42956;51.366;11.298;2022-09-27T10:11:03;0.40;;;0.40;;
57071;SDS011;42956;51.366;11.298;2022-09-27T10:13:34;2.15;;;0.60;;
57071;SDS011;42956;51.366;11.298;2022-09-27T10:16:03;2.05;;;0.50;;
57071;SDS011;42956;51.366;11.298;2022-09-27T10:18:32;1.75;;;0.50;;
57071;SDS011;42956;51.366;11.298;2022-09-27T10:21:03;0.85;;;0.70;;
57071;SDS011;42956;51.366;11.298;2022-09-27T10:23:32;0.57;;;0.40;;
57071;SDS011;42956;51.366;11.298;2022-09-27T10:26:01;1.05;;;0.60;;
57071;SDS011;42956;51.366;11.298;2022-09-27T10:28:34;0.85;;;0.65;;
57071;SDS011;42956;51.366;11.298;2022-09-27T10:31:04;1.02;;;0.50;;
57071;SDS011;42956;51.366;11.298;2022-09-27T10:33:32;1.83;;;0.80;;
57071;SDS011;42956;51.366;11.298;2022-09-27T10:36:01;3.80;;;0.80;;
57071;SDS011;42956;51.366;11.298;2022-09-27T10:38:29;1.95;;;0.73;;
57071;SDS011;42956;51.366;11.298;2022-09-27T10:40:58;4.97;;;0.85;;
57071;SDS011;42956;51.366;11.298;2022-09-27T10:43:43;3.15;;;0.77;;
57071;SDS011;42956;51.366;11.298;2022-09-27T10:46:12;4.07;;;0.80;;
57071;SDS011;42956;51.366;11.298;2022-09-27T10:48:41;0.63;;;0.63;;
57071;SDS011;42956;51.366;11.298;2022-09-27T10:51:21;2.05;;;0.60;;
57071;SDS011;42956;51.366;11.298;2022-09-27T10:53:50;0.77;;;0.57;;
57071;SDS011;42956;51.366;11.298;2022-09-27T10:56:22;0.68;;;0.60;;
57071;SDS011;42956;51.366;11.298;2022-09-27T10:58:51;3.90;;;0.65;;
57071;SDS011;42956;51.366;11.298;2022-09-27T11:01:20;1.05;;;0.40;;
57071;SDS011;42956;51.366;11.298;2022-09-27T11:03:49;2.38;;;0.68;;
57071;SDS011;42956;51.366;11.298;2022-09-27T11:06:19;2.35;;;0.60;;
57071;SDS011;42956;51.366;11.298;2022-09-27T11:08:51;2.15;;;0.68;;
57071;SDS011;42956;51.366;11.298;2022-09-27T11:11:20;5.97;;;0.68;;
57071;SDS011;42956;51.366;11.298;2022-09-27T11:13:58;3.13;;;0.57;;
57071;SDS011;42956;51.366;11.298;2022-09-27T11:16:36;2.65;;;0.50;;
57071;SDS011;42956;51.366;11.298;2022-09-27T11:19:10;1.63;;;0.60;;
57071;SDS011;42956;51.366;11.298;2022-09-27T11:21:43;4.85;;;0.80;;
57071;SDS011;42956;51.366;11.298;2022-09-27T11:24:18;2.25;;;0.50;;
57071;SDS011;42956;51.366;11.298;2022-09-27T11:26:49;1.27;;;0.70;;
57071;SDS011;42956;51.366;11.298;2022-09-27T11:29:23;4.10;;;0.75;;
57071;SDS011;42956;51.366;11.298;2022-09-27T11:31:57;2.38;;;0.60;;
57071;SDS011;42956;51.366;11.298;2022-09-27T11:34:31;3.10;;;0.75;;
57071;SDS011;42956;51.366;11.298;2022-09-27T11:37:10;3.22;;;0.68;;
57071;SDS011;42956;51.366;11.298;2022-09-27T11:39:42;0.85;;;0.65;;
57071;SDS011;42956;51.366;11.298;2022-09-27T11:42:20;0.80;;;0.47;;
57071;SDS011;42956;51.366;11.298;2022-09-27T11:44:53;1.23;;;0.90;;
57071;SDS011;42956;51.366;11.298;2022-09-27T11:47:49;4.70;;;0.95;;
57071;SDS011;42956;51.366;11.298;2022-09-27T11:50:25;4.15;;;2.05;;
57071;SDS011;42956;51.366;11.298;2022-09-27T11:53:03;2.58;;;0.95;;
57071;SDS011;42956;51.366;11.298;2022-09-27T11:55:37;1.88;;;0.90;;
57071;SDS011;42956;51.366;11.298;2022-09-27T11:58:11;1.73;;;1.05;;
57071;SDS011;42956;51.366;11.298;2022-09-27T12:00:46;1.50;;;1.13;;
57071;SDS011;42956;51.366;11.298;2022-09-27T12:03:34;3.20;;;1.35;;
57071;SDS011;42956;51.366;11.298;2022-09-27T12:06:04;1.15;;;0.98;;
57071;SDS011;42956;51.366;11.298;2022-09-27T12:11:26;1.02;;;0.85;;
57071;SDS011;42956;51.366;11.298;2022-09-27T12:13:56;1.20;;;0.90;;
57071;SDS011;42956;51.366;11.298;2022-09-27T12:16:29;1.92;;;1.00;;
57071;SDS011;42956;51.366;11.298;2022-09-27T12:18:58;1.60;;;1.40;;
57071;SDS011;42956;51.366;11.298;2022-09-27T12:21:28;2.03;;;0.90;;
57071;SDS011;42956;51.366;11.298;2022-09-27T12:23:57;2.40;;;1.33;;
57071;SDS011;42956;51.366;11.298;2022-09-27T12:26:27;2.22;;;1.10;;
57071;SDS011;42956;51.366;11.298;2022-09-27T12:28:57;2.17;;;1.35;;
57071;SDS011;42956;51.366;11.298;2022-09-27T12:31:29;2.88;;;1.20;;
57071;SDS011;42956;51.366;11.298;2022-09-27T12:34:04;2.40;;;1.70;;
57071;SDS011;42956;51.366;11.298;2022-09-27T12:36:35;4.25;;;1.40;;
57071;SDS011;42956;51.366;11.298;2022-09-27T12:39:10;14.48;;;1.98;;
57071;SDS011;42956;51.366;11.298;2022-09-27T12:41:42;8.80;;;1.70;;
57071;SDS011;42956;51.366;11.298;2022-09-27T12:44:13;3.75;;;2.10;;
57071;SDS011;42956;51.366;11.298;2022-09-27T12:46:46;3.28;;;1.67;;
57071;SDS011;42956;51.366;11.298;2022-09-27T12:49:16;3.40;;;1.33;;
57071;SDS011;42956;51.366;11.298;2022-09-27T12:51:47;3.83;;;1.58;;
57071;SDS011;42956;51.366;11.298;2022-09-27T12:57:06;1.58;;;0.60;;
57071;SDS011;42956;51.366;11.298;2022-09-27T12:59:45;2.83;;;0.65;;
57071;SDS011;42956;51.366;11.298;2022-09-27T13:02:25;1.15;;;0.73;;
57071;SDS011;42956;51.366;11.298;2022-09-27T13:05:00;2.15;;;0.65;;
57071;SDS011;42956;51.366;11.298;2022-09-27T13:07:35;0.95;;;0.50;;
57071;SDS011;42956;51.366;11.298;2022-09-27T13:10:15;0.90;;;0.47;;
57071;SDS011;42956;51.366;11.298;2022-09-27T13:12:47;3.40;;;0.43;;
57071;SDS011;42956;51.366;11.298;2022-09-27T13:15:18;1.42;;;0.50;;
57071;SDS011;42956;51.366;11.298;2022-09-27T13:17:49;3.25;;;0.75;;
57071;SDS011;42956;51.366;11.298;2022-09-27T13:26:02;2.45;;;1.58;;
57071;SDS011;42956;51.366;11.298;2022-09-27T13:28:31;1.25;;;0.80;;
57071;SDS011;42956;51.366;11.298;2022-09-27T13:31:01;0.95;;;0.60;;
57071;SDS011;42956;51.366;11.298;2022-09-27T13:33:39;0.75;;;0.70;;
57071;SDS011;42956;51.366;11.298;2022-09-27T13:39:04;1.45;;;0.80;;
57071;SDS011;42956;51.366;11.298;2022-09-27T13:41:36;1.33;;;0.95;;
57071;SDS011;42956;51.366;11.298;2022-09-27T13:44:06;1.45;;;1.35;;
57071;SDS011;42956;51.366;11.298;2022-09-27T13:46:43;2.88;;;1.10;;
57071;SDS011;42956;51.366;11.298;2022-09-27T13:49:24;1.65;;;0.85;;
57071;SDS011;42956;51.366;11.298;2022-09-27T13:51:55;1.38;;;0.73;;
57071;SDS011;42956;51.366;11.298;2022-09-27T13:54:37;2.25;;;0.55;;
57071;SDS011;42956;51.366;11.298;2022-09-27T13:59:49;1.40;;;0.68;;
57071;SDS011;42956;51.366;11.298;2022-09-27T14:02:19;2.75;;;0.68;;
57071;SDS011;42956;51.366;11.298;2022-09-27T14:04:49;4.97;;;1.73;;
57071;SDS011;42956;51.366;11.298;2022-09-27T14:07:20;2.97;;;1.13;;
57071;SDS011;42956;51.366;11.298;2022-09-27T14:09:51;9.63;;;1.23;;
57071;SDS011;42956;51.366;11.298;2022-09-27T14:12:19;5.70;;;1.30;;
57071;SDS011;42956;51.366;11.298;2022-09-27T14:14:48;0.80;;;0.80;;
57071;SDS011;42956;51.366;11.298;2022-09-27T14:17:16;2.22;;;0.73;;
57071;SDS011;42956;51.366;11.298;2022-09-27T14:19:44;0.65;;;0.65;;
57071;SDS011;42956;51.366;11.298;2022-09-27T14:22:16;1.92;;;0.70;;
57071;SDS011;42956;51.366;11.298;2022-09-27T14:24:45;1.35;;;1.20;;
57071;SDS011;42956;51.366;11.298;2022-09-27T14:27:14;1.85;;;0.93;;
57071;SDS011;42956;51.366;11.298;2022-09-27T14:29:47;2.53;;;0.80;;
57071;SDS011;42956;51.366;11.298;2022-09-27T14:32:16;1.30;;;0.80;;
57071;SDS011;42956;51.366;11.298;2022-09-27T14:34:44;6.78;;;1.00;;
57071;SDS011;42956;51.366;11.298;2022-09-27T14:37:18;1.95;;;0.80;;
57071;SDS011;42956;51.366;11.298;2022-09-27T14:39:54;6.32;;;1.40;;
57071;SDS011;42956;51.366;11.298;2022-09-27T14:42:23;2.42;;;0.82;;
57071;SDS011;42956;51.366;11.298;2022-09-27T14:44:52;0.77;;;0.75;;
57071;SDS011;42956;51.366;11.298;2022-09-27T14:47:21;1.73;;;0.98;;
57071;SDS011;42956;51.366;11.298;2022-09-27T14:49:50;6.50;;;0.88;;
57071;SDS011;42956;51.366;11.298;2022-09-27T14:52:20;1.40;;;0.82;;
57071;SDS011;42956;51.366;11.298;2022-09-27T14:54:59;1.17;;;0.88;;
57071;SDS011;42956;51.366;11.298;2022-09-27T14:57:29;1.95;;;0.68;;
57071;SDS011;42956;51.366;11.298;2022-09-27T15:00:00;1.13;;;0.80;;
57071;SDS011;42956;51.366;11.298;2022-09-27T15:02:30;1.55;;;1.02;;
57071;SDS011;42956;51.366;11.298;2022-09-27T15:04:59;1.73;;;1.17;;
57071;SDS011;42956;51.366;11.298;2022-09-27T15:07:28;1.92;;;1.20;;
57071;SDS011;42956;51.366;11.298;2022-09-27T15:09:57;3.63;;;1.58;;
57071;SDS011;42956;51.366;11.298;2022-09-27T15:12:25;1.20;;;1.00;;
57071;SDS011;42956;51.366;11.298;2022-09-27T15:14:54;3.70;;;1.50;;
57071;SDS011;42956;51.366;11.298;2022-09-27T15:17:25;1.90;;;1.40;;